Meath Environmental Platform

Observations for Trim Patrick St

Time AQI Temp °C Hum % Pres Pa CO μg/m³ H₂S μg/m³ NO μg/m³ NO₂ μg/m³ O₃ μg/m³ SO₂ μg/m³ PM1 μg/m³ PM2.5 μg/m³ PM10 μg/m³
Monday 3 August 2026
10:35 2 26 53 70,560 0.04 0 2.46 13.29 59.76 7.21 4.57 9.98 10.98
10:34 2 25.9 54 70,735 0.04 0 2.61 13.65 55.49 5.78 6.29 11.45 12.6
10:32 2 25.7 54 71,250 0.04 0 2.55 13.25 59.4 6.17 8 12.95 14.24
10:31 2 25.6 54 71,478 0.03 0 2.59 15.52 55.06 6.29 4.57 9.91 10.9
10:30 2 25.6 55 71,694 0.01 0 2.61 8.93 60.99 7.15 6.29 10.64 11.7
10:29 2 25.5 54 72,135 0 0 2.42 14.8 56.14 6.15 6.29 10.65 11.72
10:28 2 25.4 56 72,483 0 0 2.65 8.58 59.76 5.99 5.43 11.27 12.4
10:27 2 25.2 56 72,949 0 0 2.58 11.58 55.26 5.51 5.43 10.53 11.58
10:26 2 25.1 58 73,330 0 0 2.53 13.28 56.78 5.5 4.57 9.66 10.62
10:24 2 24.7 57 73,895 0 0 2.18 14.6 55.48 4.88 5.43 10.48 11.53
10:23 2 24.6 58 73,960 0 0 1.98 10.5 59.62 4.8 4.57 9.64 10.61
10:22 2 24.4 58 74,147 0 0 1.94 9.64 59.96 5.9 4.57 9.63 10.59
10:21 2 24.3 58 74,210 0 0 2.15 13.43 58.89 5.6 4.57 8.93 9.82
10:19 2 24.2 58 74,033 0 0 2.73 10.86 55.79 5.22 5.43 10.36 11.39
10:18 2 24.2 57 73,990 0 0 2.56 10.07 58.55 5.04 6.29 11.24 12.37
10:17 2 24.2 57 73,941 0 0 2.66 9.65 62.19 5.49 5.43 11.19 12.31
10:16 2 24.2 56 73,907 0 0 2.57 9.71 60.78 4.49 5.43 10.52 11.58
10:15 2 24.3 57 73,862 0 0 2.61 6.55 60.91 4.81 6.29 11.99 13.19
10:14 2 24.3 56 73,872 0 0 2.36 7.2 60 4.59 4.57 10.52 11.58
10:11 2 24.4 57 73,941 0.06 0 2.28 10.72 54.92 5.42 4.57 9.73 10.7